Flight Track Log - Related Links

Times and Time Zones

All times are in EDT time to prevent confusion due to time zone crossing. See the N329PA flight status page for this flight to view local times or setup timezone preferences in your user account.

Time Position Orientation Groundspeed Altitude Reporting Facility
EDT Latitude Longitude Course Direction KTS MPH feet Rate Location/Type
Wed 12:43:28 AM 32.1175 -110.9636 341° North 70 81 2,900  Level Albuquerque Center
Wed 12:48:50 AM 32.2240 -111.0080 329° Northwest 80 92 5,300 432 Climbing FlightAware ADS-B
Wed 12:49:15 AM 32.2320 -111.0130 332° Northwest 91 105 5,400 439 Climbing FlightAware ADS-B
Wed 12:49:31 AM 32.2370 -111.0160 333° Northwest 72 83 5,600 87 Climbing FlightAware ADS-B
Wed 12:50:09 AM 32.2500 -111.0240 333° Northwest 76 87 74 Descending FlightAware ADS-B
Wed 12:50:25 AM 32.2550 -111.0270 333° Northwest 79 91 511 Level FlightAware ADS-B
Wed 12:50:55 AM 32.2650 -111.0340 329° Northwest 79 91 522 Level FlightAware ADS-B
Wed 12:51:23 AM 32.2740 -111.0410 327° Northwest 76 87 543 Level FlightAware ADS-B
Wed 12:51:51 AM 32.2820 -111.0460 332° Northwest 84 97 565 Level FlightAware ADS-B
Wed 12:52:19 AM 32.2940 -111.0520 337° Northwest 103 119 588 Level FlightAware ADS-B
Wed 12:52:47 AM 32.3070 -111.0560 345° North 105 121 614 Level FlightAware ADS-B
Wed 12:53:16 AM 32.3200 -111.0630 336° Northwest 111 128 642 Level FlightAware ADS-B
Wed 12:53:40 AM 32.3310 -111.0710 328° Northwest 110 127 673 Level FlightAware ADS-B
Wed 12:54:09 AM 32.3440 -111.0770 339° North 106 122 702 Level FlightAware ADS-B
Wed 12:54:38 AM 32.3560 -111.0860 328° Northwest 112 129 740 Level FlightAware ADS-B
Wed 12:55:05 AM 32.3690 -111.0930 336° Northwest 110 127 783 Level FlightAware ADS-B
Wed 12:55:17 AM 32.3750 -111.0960 337° Northwest 110 127 827 Level FlightAware ADS-B
Wed 12:55:47 AM 32.3890 -111.1060 329° Northwest 111 128 848 Level FlightAware ADS-B
Wed 12:56:18 AM 32.4020 -111.1140 333° Northwest 110 127 906 Level FlightAware ADS-B
Wed 12:56:31 AM 32.4090 -111.1180 334° Northwest 116 133 975 Level FlightAware ADS-B
Wed 12:56:59 AM 32.4230 -111.1250 337° Northwest 114 131 1,008 Level FlightAware ADS-B
Wed 12:57:25 AM 32.4350 -111.1320 334° Northwest 116 133 1,085 Level FlightAware ADS-B
Wed 12:57:40 AM 32.4420 -111.1360 334° Northwest 114 131 1,168 Level FlightAware ADS-B
Wed 12:58:09 AM 32.4560 -111.1450 332° Northwest 114 131 1,222 Level FlightAware ADS-B
Wed 12:58:37 AM 32.4680 -111.1530 331° Northwest 108 124 1,342 Level FlightAware ADS-B
Wed 12:59:05 AM 32.4820 -111.1610 334° Northwest 112 129 1,483 Level FlightAware ADS-B
Wed 12:59:17 AM 32.4880 -111.1640 337° Northwest 113 130 1,657 Level FlightAware ADS-B
Wed 12:59:49 AM 32.5020 -111.1730 332° Northwest 111 128 1,744 Level FlightAware ADS-B
Wed 01:00:17 AM 32.5140 -111.1810 331° Northwest 110 127 2,031 Level FlightAware ADS-B
Wed 01:00:45 AM 32.5270 -111.1880 336° Northwest 112 129 2,371 Level FlightAware ADS-B
Wed 01:01:11 AM 32.5400 -111.1950 336° Northwest 109 125 2,849 Level FlightAware ADS-B
Wed 01:01:41 AM 32.5530 -111.2030 333° Northwest 111 128 3,504 Level FlightAware ADS-B
Wed 01:02:09 AM 32.5670 -111.2110 334° Northwest 112 129 4,771 Level FlightAware ADS-B
Wed 01:02:30 AM 32.5750 -111.2160 332° Northwest 114 131 7,200 Level FlightAware ADS-B
Wed 01:03:04 AM 32.5920 -111.2270 331° Northwest 116 133 6,600 6,188 Climbing FlightAware ADS-B
Wed 01:03:34 AM 32.6060 -111.2360 332° Northwest 115 132 6,600  Level FlightAware ADS-B
Wed 01:03:54 AM 32.6160 -111.2420 333° Northwest 112 129 6,600 130 Level FlightAware ADS-B
Wed 01:04:20 AM 32.6270 -111.2500 329° Northwest 107 123 6,700 130 Climbing FlightAware ADS-B
Wed 01:04:40 AM 32.6370 -111.2550 337° Northwest 105 121 6,700  Level FlightAware ADS-B
Wed 01:05:05 AM 32.6490 -111.2610 337° Northwest 106 122 6,700 -115 Level FlightAware ADS-B
Wed 01:05:32 AM 32.6600 -111.2680 332° Northwest 113 130 6,600 -100 Descending FlightAware ADS-B
Wed 01:06:05 AM 32.6740 -111.2770 332° Northwest 110 127 6,600  Level FlightAware ADS-B
Wed 01:06:31 AM 32.6870 -111.2860 330° Northwest 111 128 6,600  Level FlightAware ADS-B
Wed 01:07:02 AM 32.7020 -111.2940 336° Northwest 108 124 6,600  Level FlightAware ADS-B
Wed 01:07:15 AM 32.7080 -111.2970 337° Northwest 107 123 6,600  Level FlightAware ADS-B
Wed 01:07:41 AM 32.7210 -111.3040 336° Northwest 108 124 6,600  Level FlightAware ADS-B
Wed 01:08:10 AM 32.7350 -111.3130 332° Northwest 109 125 6,600 136 Level FlightAware ADS-B
Wed 01:08:25 AM 32.7410 -111.3160 337° Northwest 106 122 6,700 150 Climbing FlightAware ADS-B
Wed 01:08:50 AM 32.7520 -111.3230 332° Northwest 114 131 6,700  Level FlightAware ADS-B
Wed 01:09:21 AM 32.7670 -111.3320 333° Northwest 121 139 6,700  Level FlightAware ADS-B
Wed 01:09:48 AM 32.7760 -111.3370 335° Northwest 120 138 6,700  Level FlightAware ADS-B
Wed 01:10:15 AM 32.7870 -111.3440 332° Northwest 120 138 6,700 -92 Level FlightAware ADS-B
Wed 01:10:53 AM 32.8110 -111.3560 337° Northwest 112 129 6,600 -83 Descending FlightAware ADS-B
Wed 01:11:27 AM 32.8260 -111.3640 336° Northwest 112 129 6,600  Level FlightAware ADS-B
Wed 01:11:54 AM 32.8390 -111.3720 333° Northwest 103 119 6,600  Level FlightAware ADS-B
Wed 01:12:19 AM 32.8500 -111.3790 332° Northwest 105 121 6,600  Level FlightAware ADS-B
Wed 01:12:46 AM 32.8620 -111.3850 337° Northwest 106 122 6,600  Level FlightAware ADS-B
Wed 01:13:20 AM 32.8770 -111.3960 328° Northwest 105 121 6,600  Level FlightAware ADS-B
Wed 01:13:42 AM 32.8850 -111.4010 332° Northwest 105 121 6,600  Level FlightAware ADS-B
Wed 01:14:13 AM 32.8990 -111.4100 332° Northwest 110 127 6,600  Level FlightAware ADS-B
Wed 01:14:41 AM 32.9130 -111.4170 337° Northwest 108 124 6,600  Level FlightAware ADS-B
Wed 01:15:25 AM 32.9330 -111.4270 337° Northwest 110 127 6,600  Level FlightAware ADS-B
Wed 01:15:50 AM 32.9440 -111.4350 329° Northwest 109 125 6,600  Level FlightAware ADS-B
Wed 01:16:17 AM 32.9570 -111.4410 339° North 110 127 6,600  Level FlightAware ADS-B
Wed 01:16:50 AM 32.9780 -111.4360 11° North 118 136 6,600  Level FlightAware ADS-B
Wed 01:17:16 AM 32.9920 -111.4320 13° North 119 137  Descending FlightAware ADS-B
Wed 01:17:40 AM 33.0040 -111.4290 12° North 119 137 7,920 Level FlightAware ADS-B
Wed 01:18:06 AM 33.0150 -111.4270 North 117 135 6,600 9,209 Climbing FlightAware ADS-B
Wed 01:18:23 AM 33.0240 -111.4240 16° North 117 135 6,600  Level FlightAware ADS-B
Wed 01:18:54 AM 33.0400 -111.4170 20° North 116 133 6,600  Level FlightAware ADS-B
Wed 01:19:19 AM 33.0550 -111.4090 24° Northeast 117 135 6,600  Level FlightAware ADS-B
Wed 01:19:54 AM 33.0710 -111.4010 23° Northeast 118 136 6,600  Level FlightAware ADS-B
Wed 01:20:14 AM 33.0820 -111.3940 28° Northeast 119 137  Descending FlightAware ADS-B
Wed 01:20:33 AM 33.0930 -111.3880 25° Northeast 119 137 8,800 Level FlightAware ADS-B
Wed 01:20:59 AM 33.1020 -111.3820 29° Northeast 120 138 6,600 7,200 Climbing FlightAware ADS-B
Wed 01:21:28 AM 33.1180 -111.3730 25° Northeast 120 138 6,600  Level FlightAware ADS-B
Wed 01:21:58 AM 33.1330 -111.3680 16° North 116 133 6,600  Level FlightAware ADS-B
Wed 01:22:23 AM 33.1440 -111.3680 360° North 116 133 6,600 -111 Level FlightAware ADS-B
Wed 01:22:52 AM 33.1530 -111.3830 306° West 111 128 6,500  Descending FlightAware ADS-B
Wed 01:23:17 AM 33.1560 -111.3980 283° West 102 117 6,600 143 Climbing FlightAware ADS-B
Wed 01:23:34 AM 33.1580 -111.4080 283° West 103 119 6,600  Level FlightAware ADS-B
Wed 01:24:01 AM 33.1610 -111.4240 283° West 110 127 6,600 -536 Level FlightAware ADS-B
Wed 01:24:30 AM 33.1650 -111.4400 287° West 105 121 6,100 -915 Descending FlightAware ADS-B
Wed 01:25:00 AM 33.1680 -111.4550 283° West 95 109 5,700 -842 Descending FlightAware ADS-B
Wed 01:25:27 AM 33.1700 -111.4680 280° West 89 102 5,300 -824 Descending FlightAware ADS-B
Wed 01:25:51 AM 33.1720 -111.4800 281° West 87 100 5,000 -643 Descending FlightAware ADS-B
Wed 01:26:23 AM 33.1740 -111.4940 280° West 86 99 4,700 -600 Descending FlightAware ADS-B
Wed 01:26:31 AM 33.1750 -111.4980 287° West 85 98 4,600 -585 Descending FlightAware ADS-B
Wed 01:27:04 AM 33.1840 -111.5110 310° West 85 98 4,300 -522 Descending FlightAware ADS-B
Wed 01:27:17 AM 33.1880 -111.5150 320° Northwest 88 101 4,200 -409 Descending FlightAware ADS-B
Wed 01:27:48 AM 33.1970 -111.5240 320° Northwest 87 100 4,000 -419 Descending FlightAware ADS-B
Wed 01:28:00 AM 33.2000 -111.5290 306° West 90 104 3,900 -343 Descending FlightAware ADS-B
Wed 01:28:23 AM 33.2070 -111.5360 320° Northwest 94 108 3,800 -316 Descending FlightAware ADS-B
Wed 01:28:57 AM 33.2170 -111.5490 313° West 92 106 3,600 -393 Descending FlightAware ADS-B
Wed 01:29:24 AM 33.2250 -111.5580 317° Northwest 91 105 3,400 -514 Descending FlightAware ADS-B
Wed 01:29:32 AM 33.2290 -111.5610 328° Northwest 92 106 3,300 -615 Descending FlightAware ADS-B
Wed 01:30:03 AM 33.2380 -111.5720 314° West 94 108 3,000 -476 Descending FlightAware ADS-B
Wed 01:30:35 AM 33.2470 -111.5850 310° West 92 106 2,800 -407 Descending FlightAware ADS-B
Wed 01:31:02 AM 33.2550 -111.5950 314° West 94 108 2,600 -453 Descending FlightAware ADS-B
Wed 01:31:28 AM 33.2630 -111.6030 320° Northwest 90 104 2,400 -429 Descending FlightAware ADS-B
Wed 01:31:44 AM 33.2680 -111.6100 311° West 89 102 2,300 -450 Descending FlightAware ADS-B
Wed 01:32:08 AM 33.2740 -111.6170 316° Northwest 91 105 2,100 -577 Descending FlightAware ADS-B
Wed 01:32:36 AM 33.2840 -111.6270 320° Northwest 91 105 1,800 -508 Descending FlightAware ADS-B
Wed 01:33:07 AM 33.2930 -111.6380 314° West 88 101 1,600 -207 Descending FlightAware ADS-B
Wed 01:33:34 AM 33.3000 -111.6450 320° Northwest 88 101 1,600  Level FlightAware ADS-B
Wed 01:34:20 AM 33.3110 -111.6580 315° West 84 97 1,600 247 Level FlightAware ADS-B
Wed 01:34:47 AM 33.3170 -111.6660 312° West 80 92 1,900 554 Climbing FlightAware ADS-B
Wed 01:35:25 AM 33.3260 -111.6760 317° Northwest 74 85 2,200 476 Climbing FlightAware ADS-B
Wed 01:35:50 AM 33.3330 -111.6840 316° Northwest 76 87 2,400 492 Climbing FlightAware ADS-B
Wed 01:36:26 AM 33.3420 -111.6960 312° West 75 86 2,700 492 Climbing FlightAware ADS-B
Wed 01:36:51 AM 33.3480 -111.7030 316° Northwest 77 89 2,900 333 Climbing FlightAware ADS-B
Wed 01:37:20 AM 33.3550 -111.7110 316° Northwest 78 90 3,000 321 Climbing FlightAware ADS-B
Wed 01:37:47 AM 33.3630 -111.7180 324° Northwest 76 87 3,200 471 Climbing FlightAware ADS-B
Wed 01:38:11 AM 33.3700 -111.7240 324° Northwest 76 87 3,400 400 Climbing FlightAware ADS-B
Wed 01:38:32 AM 33.3770 -111.7280 334° Northwest 79 91 3,500 235 Climbing FlightAware ADS-B
Wed 01:39:02 AM 33.3900 -111.7300 353° North 94 108 3,600 115 Climbing FlightAware ADS-B
Wed 01:39:24 AM 33.4000 -111.7330 346° North 105 121 3,600  Level FlightAware ADS-B
Wed 01:39:41 AM 33.4070 -111.7390 324° Northwest 107 123 3,600  Level FlightAware ADS-B
Wed 01:39:54 AM 33.4120 -111.7430 326° Northwest 108 124 3,600  Level FlightAware ADS-B
Wed 01:40:03 AM 33.4160 -111.7460 328° Northwest 109 125 3,600  Level FlightAware ADS-B
Wed 01:40:34 AM 33.4280 -111.7570 323° Northwest 112 129 3,600  Level FlightAware ADS-B
Wed 01:40:47 AM 33.4340 -111.7620 325° Northwest 107 123 3,600  Level FlightAware ADS-B
Wed 01:41:12 AM 33.4450 -111.7710 326° Northwest 115 132 3,600  Level FlightAware ADS-B
Wed 01:41:43 AM 33.4590 -111.7800 332° Northwest 111 128 3,600 -100 Level FlightAware ADS-B
Wed 01:42:12 AM 33.4710 -111.7910 323° Northwest 111 128 3,500  Descending FlightAware ADS-B
Wed 01:42:57 AM 33.4890 -111.8080 322° Northwest 110 127 3,600 85 Climbing FlightAware ADS-B
Wed 01:43:23 AM 33.4990 -111.8160 326° Northwest 111 128 3,600  Level FlightAware ADS-B
Wed 01:43:55 AM 33.5150 -111.8260 332° Northwest 103 119 3,600  Level FlightAware ADS-B
Wed 01:44:23 AM 33.5250 -111.8340 326° Northwest 94 108 3,600 -162 Level FlightAware ADS-B
Wed 01:44:32 AM 33.5270 -111.8370 309° West 89 102 3,500 -706 Descending FlightAware ADS-B
Wed 01:44:57 AM 33.5360 -111.8440 327° Northwest 88 101 3,200 -706 Descending FlightAware ADS-B
Wed 01:45:31 AM 33.5500 -111.8530 332° Northwest 85 98 -700 Descending FlightAware ADS-B
Wed 01:45:57 AM 33.5590 -111.8600 327° Northwest 85 98 2,500 2,632 Climbing FlightAware ADS-B
Wed 01:46:28 AM 33.5650 -111.8700 306° West 94 108 2,500  Level FlightAware ADS-B
Wed 01:46:51 AM 33.5710 -111.8790 309° West 98 113 2,500  Level FlightAware ADS-B
Wed 01:47:08 AM 33.5760 -111.8850 315° West 92 106 2,500  Level FlightAware ADS-B
Wed 01:47:38 AM 33.5840 -111.8970 309° West 88 101 2,500  Level FlightAware ADS-B
Wed 01:48:08 AM 33.5930 -111.9080 314° West 86 99 2,500 158 Level FlightAware ADS-B
Wed 01:48:16 AM 33.5940 -111.9110 292° West 81 93 2,600 545 Climbing FlightAware ADS-B
Wed 01:48:30 AM 33.5990 -111.9140 333° Northwest 92 106 2,700 273 Climbing FlightAware ADS-B
Wed 01:49:00 AM 33.6100 -111.9230 326° Northwest 103 119 2,800  Climbing FlightAware ADS-B
Wed 01:49:22 AM 33.6180 -111.9320 317° Northwest 106 122 2,700 -107 Descending FlightAware ADS-B
Wed 01:49:56 AM 33.6300 -111.9480 312° West 110 127 2,700 -128 Level FlightAware ADS-B
Wed 01:50:09 AM 33.6320 -111.9550 289° West 107 123 2,600 -154 Descending FlightAware ADS-B
Wed 01:50:35 AM 33.6370 -111.9690 293° West 103 119 2,600 -81 Level FlightAware ADS-B
Wed 01:51:23 AM 33.6520 -111.9970 303° West 110 127 2,500  Descending FlightAware ADS-B
Wed 01:51:45 AM 33.6580 -112.0080 303° West 102 117 2,600 273 Climbing FlightAware ADS-B

Login

Don't have an account? Register now (free) for customized features, flight alerts, and more!